createdAt,value
2022-09-04T00:02:15.851Z,2.33
2022-09-04T00:05:07.293Z,1.80
2022-09-04T00:07:41.249Z,1.88
2022-09-04T00:10:16.696Z,1.55
2022-09-04T00:13:01.912Z,1.83
2022-09-04T00:15:36.258Z,1.42
2022-09-04T00:18:15.321Z,1.95
2022-09-04T00:21:00.793Z,1.90
2022-09-04T00:23:55.626Z,1.90
2022-09-04T00:26:50.130Z,1.50
2022-09-04T00:29:29.131Z,1.92
2022-09-04T00:32:10.633Z,1.55
2022-09-04T00:34:47.999Z,2.00
2022-09-04T00:37:21.410Z,1.95
2022-09-04T00:40:01.618Z,1.50
2022-09-04T00:43:13.617Z,1.63
2022-09-04T00:46:01.188Z,1.77
2022-09-04T00:49:12.157Z,1.63
2022-09-04T00:51:59.836Z,2.00
2022-09-04T00:54:26.273Z,1.77
2022-09-04T00:57:21.018Z,1.80
2022-09-04T01:00:01.583Z,1.50
2022-09-04T01:02:49.795Z,1.90
2022-09-04T01:09:12.579Z,1.80
2022-09-04T01:11:47.935Z,1.70
2022-09-04T01:14:34.422Z,1.63
2022-09-04T01:17:30.506Z,1.98
2022-09-04T01:20:20.133Z,1.90
2022-09-04T01:23:19.468Z,1.88
2022-09-04T01:26:32.704Z,1.60
2022-09-04T01:29:13.204Z,1.52
2022-09-04T01:31:57.604Z,1.70
2022-09-04T01:34:33.122Z,1.63
2022-09-04T01:37:24.510Z,1.77
2022-09-04T01:40:10.046Z,1.48
2022-09-04T01:42:47.639Z,1.60
2022-09-04T01:45:25.508Z,1.75
2022-09-04T01:47:56.930Z,1.60
2022-09-04T01:50:28.049Z,1.60
2022-09-04T01:53:24.686Z,1.88
2022-09-04T01:56:00.580Z,1.70
2022-09-04T01:58:27.618Z,1.60
2022-09-04T02:01:01.769Z,1.77
2022-09-04T02:04:20.242Z,1.83
2022-09-04T02:07:24.203Z,1.38
2022-09-04T02:10:06.429Z,1.20
2022-09-04T02:12:50.920Z,1.30
2022-09-04T02:15:37.616Z,1.17
2022-09-04T02:18:20.063Z,1.60
2022-09-04T02:20:55.181Z,1.10
2022-09-04T02:23:30.533Z,1.23
2022-09-04T02:26:04.031Z,1.30
2022-09-04T02:29:06.484Z,1.75
2022-09-04T02:31:51.454Z,1.58
2022-09-04T02:34:45.732Z,1.27
2022-09-04T02:37:27.341Z,1.25
2022-09-04T02:40:05.691Z,1.73
2022-09-04T02:42:58.453Z,1.25
2022-09-04T02:45:42.241Z,1.25
2022-09-04T02:48:44.661Z,1.85
2022-09-04T02:51:20.764Z,1.80
2022-09-04T02:53:55.210Z,1.48
2022-09-04T02:56:52.306Z,1.40
2022-09-04T02:59:25.180Z,1.63
2022-09-04T03:02:04.060Z,1.40
2022-09-04T03:04:39.530Z,1.83
2022-09-04T03:07:17.076Z,1.30
2022-09-04T03:09:55.232Z,1.95
2022-09-04T03:12:28.121Z,1.38
2022-09-04T03:15:29.368Z,1.23
2022-09-04T03:18:05.081Z,1.70
2022-09-04T03:20:44.491Z,1.65
2022-09-04T03:23:25.709Z,1.30
2022-09-04T03:26:10.006Z,1.40
2022-09-04T03:28:52.108Z,1.48
2022-09-04T03:31:28.861Z,1.50
2022-09-04T03:34:06.347Z,1.88
2022-09-04T03:36:40.245Z,1.70
2022-09-04T03:39:40.646Z,1.25
2022-09-04T03:42:31.873Z,1.05
2022-09-04T03:45:16.782Z,1.50
2022-09-04T03:48:20.201Z,1.40
2022-09-04T03:51:14.966Z,1.58
2022-09-04T03:53:45.603Z,1.73
2022-09-04T03:56:32.017Z,1.50
2022-09-04T03:59:04.211Z,1.77
2022-09-04T04:01:40.883Z,1.40
2022-09-04T04:04:16.289Z,1.25
2022-09-04T04:06:58.708Z,1.23
2022-09-04T04:09:40.092Z,1.33
2022-09-04T04:12:25.492Z,1.50
2022-09-04T04:15:05.162Z,1.00
2022-09-04T04:18:23.054Z,1.48
2022-09-04T04:20:58.255Z,1.30
2022-09-04T04:24:04.919Z,1.45
2022-09-04T04:27:04.048Z,1.55
2022-09-04T04:30:02.602Z,1.38
2022-09-04T04:33:18.848Z,1.27
2022-09-04T04:36:00.846Z,1.15
2022-09-04T04:39:02.505Z,1.20
2022-09-04T04:41:30.742Z,1.15
2022-09-04T04:44:45.566Z,1.15
2022-09-04T04:47:36.603Z,1.40
2022-09-04T04:50:32.734Z,1.50
2022-09-04T04:53:14.425Z,1.15
2022-09-04T04:55:49.473Z,1.35
2022-09-04T04:58:25.280Z,1.35
2022-09-04T05:01:09.482Z,1.50
2022-09-04T05:03:57.681Z,1.42
2022-09-04T05:06:48.699Z,1.42
2022-09-04T05:09:31.642Z,1.40
2022-09-04T05:12:34.853Z,1.38
2022-09-04T05:16:07.566Z,1.30
2022-09-04T05:18:45.220Z,1.50
2022-09-04T05:21:37.505Z,1.65
2022-09-04T05:24:44.879Z,1.30
2022-09-04T05:27:39.692Z,1.27
2022-09-04T05:30:15.821Z,1.60
2022-09-04T05:33:15.933Z,1.45
2022-09-04T05:36:12.320Z,1.40
2022-09-04T05:38:44.076Z,1.30
2022-09-04T05:44:12.140Z,1.60
2022-09-04T05:46:49.363Z,1.60
2022-09-04T05:49:25.650Z,1.17
2022-09-04T05:52:43.475Z,1.35
2022-09-04T05:55:32.994Z,1.58
2022-09-04T05:58:29.906Z,1.63
2022-09-04T06:01:02.160Z,1.35
2022-09-04T06:03:31.297Z,1.45
2022-09-04T06:06:11.876Z,1.80
2022-09-04T06:09:02.865Z,1.55
2022-09-04T06:11:51.393Z,1.30
2022-09-04T06:14:56.042Z,1.38
2022-09-04T06:17:28.272Z,1.65
2022-09-04T06:20:30.741Z,1.60
2022-09-04T06:23:18.234Z,1.88
2022-09-04T06:26:11.887Z,1.40
2022-09-04T06:29:08.393Z,1.55
2022-09-04T06:32:19.983Z,1.52
2022-09-04T06:35:18.774Z,1.20
2022-09-04T06:38:07.029Z,1.60
2022-09-04T06:41:08.589Z,1.70
2022-09-04T06:43:50.914Z,1.50
2022-09-04T06:46:30.819Z,1.55
2022-09-04T06:49:08.654Z,1.65
2022-09-04T06:51:44.488Z,1.67
2022-09-04T06:54:32.211Z,1.90
2022-09-04T06:57:08.103Z,2.00
2022-09-04T06:59:46.210Z,1.77
2022-09-04T07:02:28.918Z,1.60
2022-09-04T07:05:10.027Z,1.73
2022-09-04T07:08:03.248Z,2.30
2022-09-04T07:10:32.674Z,2.45
2022-09-04T07:13:23.451Z,2.20
2022-09-04T07:16:05.921Z,1.90
2022-09-04T07:18:50.829Z,2.20
2022-09-04T07:21:52.527Z,2.28
2022-09-04T07:24:47.613Z,2.13
2022-09-04T07:27:23.259Z,2.35
2022-09-04T07:30:05.130Z,2.10
2022-09-04T07:32:56.033Z,2.17
2022-09-04T07:35:39.515Z,1.90
2022-09-04T07:38:21.851Z,2.30
2022-09-04T07:41:26.776Z,2.00
2022-09-04T07:44:05.410Z,2.22
2022-09-04T07:46:50.447Z,2.17
2022-09-04T07:49:37.838Z,2.40
2022-09-04T07:52:23.238Z,2.10
2022-09-04T07:55:28.871Z,2.30
2022-09-04T07:58:20.334Z,2.17
2022-09-04T08:01:11.807Z,2.40
2022-09-04T08:03:56.831Z,2.50
2022-09-04T08:06:44.736Z,2.15
2022-09-04T08:09:27.399Z,2.05
2022-09-04T08:12:02.499Z,2.28
2022-09-04T08:14:37.614Z,2.35
2022-09-04T08:17:37.115Z,2.85
2022-09-04T08:20:34.587Z,2.60
2022-09-04T08:23:25.873Z,2.20
2022-09-04T08:26:14.699Z,2.20
2022-09-04T08:28:45.560Z,2.60
2022-09-04T08:34:22.394Z,2.38
2022-09-04T08:37:13.157Z,2.28
2022-09-04T08:39:49.622Z,2.33
2022-09-04T08:42:54.676Z,2.33
2022-09-04T08:45:33.035Z,2.03
2022-09-04T08:48:48.957Z,2.17
2022-09-04T08:51:50.274Z,2.35
2022-09-04T08:54:48.434Z,2.35
2022-09-04T08:57:47.299Z,2.30
2022-09-04T09:00:38.141Z,2.35
2022-09-04T09:03:13.394Z,2.28
2022-09-04T09:05:58.382Z,2.40
2022-09-04T09:09:02.178Z,2.35
2022-09-04T09:12:02.454Z,2.30
2022-09-04T09:15:04.004Z,1.90
2022-09-04T09:18:00.242Z,2.00
2022-09-04T09:20:28.467Z,1.88
2022-09-04T09:23:18.338Z,2.03
2022-09-04T09:25:51.057Z,1.85
2022-09-04T09:29:13.500Z,2.13
2022-09-04T09:32:16.822Z,1.65
2022-09-04T09:35:22.564Z,2.10
2022-09-04T09:38:15.606Z,2.03
2022-09-04T09:41:12.553Z,1.75
2022-09-04T09:44:21.859Z,1.88
2022-09-04T09:47:18.092Z,1.65
2022-09-04T09:49:55.654Z,1.77
2022-09-04T09:52:41.098Z,1.70
2022-09-04T09:55:16.282Z,1.70
2022-09-04T09:58:01.799Z,1.60
2022-09-04T10:01:01.183Z,1.98
2022-09-04T10:03:39.036Z,1.42
2022-09-04T10:06:27.112Z,1.40
2022-09-04T10:09:31.415Z,1.58
2022-09-04T10:12:21.924Z,1.50
2022-09-04T10:15:05.973Z,1.77
2022-09-04T10:18:03.419Z,1.45
2022-09-04T10:20:29.960Z,1.63
2022-09-04T10:23:05.816Z,1.92
2022-09-04T10:25:50.243Z,1.80
2022-09-04T10:28:41.626Z,1.65
2022-09-04T10:31:26.928Z,1.85
2022-09-04T10:34:24.962Z,1.75
2022-09-04T10:37:19.429Z,1.80
2022-09-04T10:40:21.505Z,2.00
2022-09-04T10:42:50.781Z,1.60
2022-09-04T10:45:38.999Z,1.65
2022-09-04T10:48:14.994Z,1.80
2022-09-04T10:51:05.683Z,1.88
2022-09-04T10:54:07.745Z,2.17
2022-09-04T10:56:47.304Z,1.88
2022-09-04T10:59:37.087Z,1.90
2022-09-04T11:02:15.503Z,2.00
2022-09-04T11:04:52.585Z,1.90
2022-09-04T11:07:43.165Z,2.40
2022-09-04T11:10:41.899Z,1.90
2022-09-04T11:13:23.467Z,1.90
2022-09-04T11:16:02.260Z,1.83
2022-09-04T11:18:38.065Z,1.70
2022-09-04T11:21:21.037Z,1.67
2022-09-04T11:24:17.283Z,1.80
2022-09-04T11:27:07.941Z,1.70
2022-09-04T11:29:54.367Z,1.85
2022-09-04T11:32:43.708Z,1.77
2022-09-04T11:35:19.766Z,2.17
2022-09-04T11:38:43.674Z,1.65
2022-09-04T11:41:51.163Z,1.83
2022-09-04T11:44:38.272Z,2.30
2022-09-04T11:47:20.022Z,3.28
2022-09-04T11:50:01.683Z,1.77
2022-09-04T11:53:12.783Z,2.00
2022-09-04T11:56:04.108Z,1.40
2022-09-04T11:58:50.875Z,1.80
2022-09-04T12:01:32.267Z,1.98
2022-09-04T12:07:02.377Z,1.77
2022-09-04T12:09:51.338Z,2.00
2022-09-04T12:12:27.982Z,1.95
2022-09-04T12:15:12.653Z,2.03
2022-09-04T12:17:50.043Z,1.90
2022-09-04T12:20:24.158Z,2.10
2022-09-04T12:23:21.616Z,1.92
2022-09-04T12:26:17.994Z,1.80
2022-09-04T12:29:19.355Z,1.85
2022-09-04T12:32:07.161Z,2.10
2022-09-04T12:34:54.461Z,1.77
2022-09-04T12:37:36.119Z,1.75
2022-09-04T12:43:01.061Z,2.13
2022-09-04T12:45:54.776Z,1.80
2022-09-04T12:48:24.389Z,1.77
2022-09-04T12:51:05.624Z,1.67
2022-09-04T12:53:52.471Z,2.20
2022-09-04T12:56:26.258Z,1.80
2022-09-04T12:59:07.413Z,2.85
2022-09-04T13:01:56.827Z,1.90
2022-09-04T13:04:58.582Z,2.20
2022-09-04T13:07:42.685Z,1.80
2022-09-04T13:10:33.685Z,1.75
2022-09-04T13:13:09.884Z,2.08
2022-09-04T13:16:14.148Z,2.10
2022-09-04T13:18:41.143Z,1.90
2022-09-04T13:21:22.610Z,1.80
2022-09-04T13:23:57.240Z,1.77
2022-09-04T13:27:02.550Z,2.17
2022-09-04T13:30:03.591Z,1.77
2022-09-04T13:32:59.607Z,2.30
2022-09-04T13:35:44.760Z,1.80
2022-09-04T13:38:15.323Z,1.80
2022-09-04T13:41:18.350Z,2.10
2022-09-04T13:44:06.649Z,2.08
2022-09-04T13:46:39.021Z,1.85
2022-09-04T13:49:44.197Z,1.95
2022-09-04T13:52:24.423Z,2.00
2022-09-04T13:55:13.560Z,2.47
2022-09-04T13:57:53.230Z,1.95
2022-09-04T14:00:21.434Z,2.33
2022-09-04T14:02:55.830Z,1.70
2022-09-04T14:05:25.318Z,2.00
2022-09-04T14:07:59.631Z,1.65
2022-09-04T14:10:50.786Z,2.08
2022-09-04T14:13:52.980Z,2.28
2022-09-04T14:16:19.838Z,1.90
2022-09-04T14:19:21.947Z,2.22
2022-09-04T14:24:43.754Z,1.80
2022-09-04T14:27:46.370Z,2.08
2022-09-04T14:30:24.850Z,2.22
2022-09-04T14:33:37.120Z,1.95
2022-09-04T14:36:11.471Z,1.73
2022-09-04T14:38:37.988Z,1.85
2022-09-04T14:41:38.124Z,1.77
2022-09-04T14:44:35.433Z,1.95
2022-09-04T14:47:30.382Z,1.88
2022-09-04T14:50:02.988Z,1.95
2022-09-04T14:52:39.924Z,2.15
2022-09-04T14:55:12.976Z,1.70
2022-09-04T14:57:55.257Z,1.85
2022-09-04T15:00:23.417Z,1.98
2022-09-04T15:03:17.379Z,2.00
2022-09-04T15:05:55.697Z,1.98
2022-09-04T15:08:38.120Z,1.92
2022-09-04T15:11:46.339Z,2.30
2022-09-04T15:14:32.968Z,2.28
2022-09-04T15:17:08.494Z,2.03
2022-09-04T15:19:55.116Z,2.00
2022-09-04T15:22:44.682Z,2.15
2022-09-04T15:26:00.415Z,2.00
2022-09-04T15:28:38.366Z,1.90
2022-09-04T15:31:10.006Z,2.17
2022-09-04T15:33:40.810Z,2.08
2022-09-04T15:36:14.956Z,2.22
2022-09-04T15:38:57.427Z,1.80
2022-09-04T15:41:34.081Z,2.10
2022-09-04T15:44:30.283Z,2.00
2022-09-04T15:47:15.970Z,2.00
2022-09-04T15:49:59.049Z,2.08
2022-09-04T15:53:04.708Z,2.00
2022-09-04T15:55:34.600Z,2.13
2022-09-04T15:58:19.966Z,2.20
2022-09-04T16:01:13.279Z,1.85
2022-09-04T16:03:43.625Z,2.05
2022-09-04T16:06:27.184Z,2.15
2022-09-04T16:09:01.125Z,2.22
2022-09-04T16:11:46.068Z,2.38
2022-09-04T16:14:27.769Z,2.05
2022-09-04T16:19:38.535Z,2.03
2022-09-04T16:22:20.674Z,2.10
2022-09-04T16:24:53.930Z,2.25
2022-09-04T16:27:24.370Z,1.88
2022-09-04T16:29:58.018Z,1.83
2022-09-04T16:32:29.497Z,1.80
2022-09-04T16:37:42.425Z,2.42
2022-09-04T16:40:56.192Z,1.70
2022-09-04T16:43:34.079Z,1.80
2022-09-04T16:46:10.301Z,1.88
2022-09-04T16:48:43.278Z,1.80
2022-09-04T16:51:39.285Z,1.77
2022-09-04T16:54:29.062Z,1.83
2022-09-04T16:57:12.112Z,1.88
2022-09-04T16:59:43.383Z,1.92
2022-09-04T17:02:35.827Z,2.00
2022-09-04T17:05:19.424Z,2.67
2022-09-04T17:08:08.609Z,1.80
2022-09-04T17:11:22.154Z,2.08
2022-09-04T17:13:55.466Z,2.10
2022-09-04T17:16:24.813Z,2.30
2022-09-04T17:18:55.417Z,2.00
2022-09-04T17:27:30.546Z,2.90
2022-09-04T17:29:09.938Z,2.35
2022-09-04T17:29:13.162Z,2.33
2022-09-04T17:31:01.405Z,2.80
2022-09-04T17:39:59.099Z,2.03
2022-09-04T17:40:40.356Z,2.47
2022-09-04T17:40:55.715Z,2.70
2022-09-04T17:42:22.812Z,2.70
2022-09-04T17:45:07.442Z,2.85
2022-09-04T17:47:42.764Z,3.30
2022-09-04T17:50:25.436Z,2.65
2022-09-04T17:53:00.267Z,2.53
2022-09-04T17:55:30.708Z,3.00
2022-09-04T17:58:49.422Z,3.45
2022-09-04T18:01:28.675Z,2.72
2022-09-04T18:04:20.010Z,2.83
2022-09-04T18:06:51.503Z,2.80
2022-09-04T18:09:31.923Z,2.95
2022-09-04T18:12:31.430Z,3.10
2022-09-04T18:15:33.515Z,3.42
2022-09-04T18:18:06.848Z,3.42
2022-09-04T18:20:57.491Z,3.47
2022-09-04T18:23:51.574Z,3.13
2022-09-04T18:26:21.661Z,3.90
2022-09-04T18:29:30.460Z,2.97
2022-09-04T18:37:16.272Z,2.70
2022-09-04T18:37:18.585Z,3.10
2022-09-04T18:38:09.493Z,3.17
2022-09-04T18:41:26.644Z,3.22
2022-09-04T18:50:39.646Z,3.00
2022-09-04T18:50:39.792Z,3.13
2022-09-04T18:50:51.125Z,3.20
2022-09-04T18:52:19.874Z,3.38
2022-09-04T18:54:49.891Z,3.00
2022-09-04T18:57:29.648Z,3.70
2022-09-04T19:00:08.694Z,3.30
2022-09-04T19:02:55.222Z,3.83
2022-09-04T19:05:32.943Z,3.65
2022-09-04T19:08:21.980Z,3.65
2022-09-04T19:11:20.806Z,3.67
2022-09-04T19:14:10.299Z,2.92
2022-09-04T19:16:43.512Z,3.92
2022-09-04T19:19:47.758Z,4.15
2022-09-04T19:22:28.344Z,4.35
2022-09-04T19:25:07.890Z,4.10
2022-09-04T19:27:42.515Z,3.70
2022-09-04T19:30:19.810Z,3.67
2022-09-04T19:32:59.631Z,3.67
2022-09-04T19:35:35.061Z,3.15
2022-09-04T19:44:15.332Z,3.33
2022-09-04T19:46:00.637Z,3.55
2022-09-04T19:46:17.427Z,3.50
2022-09-04T19:47:49.650Z,3.20
2022-09-04T19:53:19.839Z,3.10
2022-09-04T19:53:49.428Z,3.25
2022-09-04T19:56:28.203Z,3.47
2022-09-04T19:59:11.421Z,3.67
2022-09-04T20:01:53.271Z,3.65
2022-09-04T20:04:41.281Z,3.40
2022-09-04T20:07:17.968Z,3.28
2022-09-04T20:09:52.505Z,3.88
2022-09-04T20:12:21.492Z,3.65
2022-09-04T20:14:54.932Z,3.50
2022-09-04T20:17:44.611Z,3.70
2022-09-04T20:20:46.965Z,3.38
2022-09-04T20:23:34.546Z,3.40
2022-09-04T20:26:17.930Z,4.13
2022-09-04T20:28:53.213Z,3.50
2022-09-04T20:31:45.133Z,3.60
2022-09-04T20:34:38.859Z,3.03
2022-09-04T20:37:44.568Z,3.63
2022-09-04T20:40:40.554Z,3.15
2022-09-04T20:43:24.396Z,3.30
2022-09-04T20:52:43.140Z,3.22
2022-09-04T20:52:57.425Z,3.88
2022-09-04T20:52:59.189Z,3.60
2022-09-04T20:55:09.110Z,3.70
2022-09-04T21:01:36.530Z,3.97
2022-09-04T21:03:10.269Z,3.00
2022-09-04T21:04:15.387Z,3.58
2022-09-04T21:07:08.753Z,3.88
2022-09-04T21:09:57.006Z,3.77
2022-09-04T21:12:37.826Z,3.47
2022-09-04T21:15:31.942Z,3.30
2022-09-04T21:17:58.437Z,3.55
2022-09-04T21:20:41.625Z,3.63
2022-09-04T21:23:33.021Z,3.35
2022-09-04T21:26:17.676Z,3.75
2022-09-04T21:28:55.973Z,4.13
2022-09-04T21:32:19.351Z,3.42
2022-09-04T21:35:11.352Z,3.40
2022-09-04T21:38:10.022Z,3.30
2022-09-04T21:41:03.504Z,3.83
2022-09-04T21:44:07.126Z,4.00
2022-09-04T21:47:07.401Z,3.78
2022-09-04T21:49:55.716Z,4.15
2022-09-04T21:52:22.638Z,4.03
2022-09-04T21:58:29.884Z,3.72
2022-09-04T22:02:36.346Z,3.45
2022-09-04T22:02:36.516Z,3.72
2022-09-04T22:04:29.254Z,3.65
2022-09-04T22:11:39.857Z,3.67
2022-09-04T22:13:29.049Z,3.15
2022-09-04T22:13:43.203Z,3.72
2022-09-04T22:16:04.438Z,3.35
2022-09-04T22:18:50.623Z,4.07
2022-09-04T22:21:40.500Z,3.55
2022-09-04T22:24:43.612Z,3.42
2022-09-04T22:27:35.495Z,3.97
2022-09-04T22:30:22.337Z,4.22
2022-09-04T22:32:57.690Z,3.47
2022-09-04T22:36:01.515Z,3.42
2022-09-04T22:38:56.969Z,4.03
2022-09-04T22:41:41.841Z,4.45
2022-09-04T22:44:34.227Z,3.85
2022-09-04T22:47:25.675Z,3.75
2022-09-04T22:49:57.288Z,3.92
2022-09-04T22:52:37.851Z,3.60
2022-09-04T22:55:39.711Z,4.03
2022-09-04T22:58:43.942Z,3.92
2022-09-04T23:01:23.269Z,3.92
2022-09-04T23:04:14.520Z,4.28
2022-09-04T23:13:43.349Z,3.83
2022-09-04T23:13:49.836Z,4.40
2022-09-04T23:13:58.660Z,4.50
2022-09-04T23:16:40.480Z,4.05
2022-09-04T23:25:56.860Z,4.05
2022-09-04T23:26:44.301Z,3.95
2022-09-04T23:26:52.826Z,4.57
2022-09-04T23:28:52.521Z,3.72
2022-09-04T23:31:29.425Z,3.70
2022-09-04T23:34:11.097Z,3.75
2022-09-04T23:37:04.442Z,4.25
2022-09-04T23:39:46.400Z,4.15
2022-09-04T23:42:40.463Z,3.53
2022-09-04T23:45:28.438Z,3.95
2022-09-04T23:47:57.622Z,3.78
2022-09-04T23:50:47.105Z,3.60
2022-09-04T23:53:44.148Z,4.07
2022-09-04T23:56:39.407Z,4.05
2022-09-04T23:59:37.242Z,4.05
